sensor_id;sensor_type;location;lat;lon;timestamp;temperature;humidity
6740;DHT22;3407;49.882;10.920;2023-07-20T00:00:20;18.30;1.00
6740;DHT22;3407;49.882;10.920;2023-07-20T00:05:15;18.40;1.00
6740;DHT22;3407;49.882;10.920;2023-07-20T00:10:13;18.40;1.00
6740;DHT22;3407;49.882;10.920;2023-07-20T00:15:09;18.50;99.90
6740;DHT22;3407;49.882;10.920;2023-07-20T00:20:05;18.50;1.00
6740;DHT22;3407;49.882;10.920;2023-07-20T00:25:01;18.50;99.90
6740;DHT22;3407;49.882;10.920;2023-07-20T00:29:57;18.40;97.60
6740;DHT22;3407;49.882;10.920;2023-07-20T00:34:52;18.30;1.00
6740;DHT22;3407;49.882;10.920;2023-07-20T00:39:48;18.20;99.90
6740;DHT22;3407;49.882;10.920;2023-07-20T00:44:43;18.20;1.00
6740;DHT22;3407;49.882;10.920;2023-07-20T00:49:39;18.30;1.00
6740;DHT22;3407;49.882;10.920;2023-07-20T00:54:35;18.20;44.70
6740;DHT22;3407;49.882;10.920;2023-07-20T00:59:31;18.10;1.00
6740;DHT22;3407;49.882;10.920;2023-07-20T01:04:27;17.90;1.00
6740;DHT22;3407;49.882;10.920;2023-07-20T01:09:31;17.80;79.20
6740;DHT22;3407;49.882;10.920;2023-07-20T01:14:29;17.70;99.90
6740;DHT22;3407;49.882;10.920;2023-07-20T01:19:26;17.60;99.90
6740;DHT22;3407;49.882;10.920;2023-07-20T01:30:03;17.50;99.90
6740;DHT22;3407;49.882;10.920;2023-07-20T01:35:02;17.40;99.90
6740;DHT22;3407;49.882;10.920;2023-07-20T01:39:59;17.30;99.90
6740;DHT22;3407;49.882;10.920;2023-07-20T01:44:55;17.30;99.90
6740;DHT22;3407;49.882;10.920;2023-07-20T01:49:50;17.30;1.00
6740;DHT22;3407;49.882;10.920;2023-07-20T01:54:46;17.20;99.90
6740;DHT22;3407;49.882;10.920;2023-07-20T01:59:41;17.20;99.90
6740;DHT22;3407;49.882;10.920;2023-07-20T02:04:37;17.00;99.90
6740;DHT22;3407;49.882;10.920;2023-07-20T02:09:33;17.00;1.00
6740;DHT22;3407;49.882;10.920;2023-07-20T02:14:28;17.10;1.00
6740;DHT22;3407;49.882;10.920;2023-07-20T02:19:25;17.30;99.90
6740;DHT22;3407;49.882;10.920;2023-07-20T02:24:21;17.20;99.90
6740;DHT22;3407;49.882;10.920;2023-07-20T02:29:17;17.10;1.00
6740;DHT22;3407;49.882;10.920;2023-07-20T02:34:13;17.00;1.00
6740;DHT22;3407;49.882;10.920;2023-07-20T02:39:09;17.00;1.00
6740;DHT22;3407;49.882;10.920;2023-07-20T02:44:05;17.10;1.00
6740;DHT22;3407;49.882;10.920;2023-07-20T02:49:01;17.10;1.00
6740;DHT22;3407;49.882;10.920;2023-07-20T02:53:56;16.90;1.00
6740;DHT22;3407;49.882;10.920;2023-07-20T02:58:52;16.90;1.00
6740;DHT22;3407;49.882;10.920;2023-07-20T03:03:47;16.70;1.00
6740;DHT22;3407;49.882;10.920;2023-07-20T03:08:43;16.70;1.00
6740;DHT22;3407;49.882;10.920;2023-07-20T03:13:41;16.60;1.00
6740;DHT22;3407;49.882;10.920;2023-07-20T03:18:41;16.60;1.00
6740;DHT22;3407;49.882;10.920;2023-07-20T03:23:37;16.70;1.00
6740;DHT22;3407;49.882;10.920;2023-07-20T03:28:32;16.70;1.00
6740;DHT22;3407;49.882;10.920;2023-07-20T03:33:29;16.60;1.00
6740;DHT22;3407;49.882;10.920;2023-07-20T03:38:26;16.40;1.00
6740;DHT22;3407;49.882;10.920;2023-07-20T03:43:22;16.40;1.00
6740;DHT22;3407;49.882;10.920;2023-07-20T03:48:21;16.20;1.00
6740;DHT22;3407;49.882;10.920;2023-07-20T03:53:17;16.20;1.00
6740;DHT22;3407;49.882;10.920;2023-07-20T03:58:14;16.20;1.00
6740;DHT22;3407;49.882;10.920;2023-07-20T04:03:10;16.30;1.00
6740;DHT22;3407;49.882;10.920;2023-07-20T04:08:05;16.10;1.00
6740;DHT22;3407;49.882;10.920;2023-07-20T04:13:01;16.10;1.00
6740;DHT22;3407;49.882;10.920;2023-07-20T04:17:57;16.10;1.00
6740;DHT22;3407;49.882;10.920;2023-07-20T04:22:52;16.20;1.00
6740;DHT22;3407;49.882;10.920;2023-07-20T04:27:49;16.20;1.00
6740;DHT22;3407;49.882;10.920;2023-07-20T04:32:44;16.30;1.00
6740;DHT22;3407;49.882;10.920;2023-07-20T04:37:41;16.50;1.00
6740;DHT22;3407;49.882;10.920;2023-07-20T04:42:40;16.60;1.00
6740;DHT22;3407;49.882;10.920;2023-07-20T04:47:36;16.70;1.00
6740;DHT22;3407;49.882;10.920;2023-07-20T04:52:31;17.00;1.00
6740;DHT22;3407;49.882;10.920;2023-07-20T04:57:27;17.00;1.00
6740;DHT22;3407;49.882;10.920;2023-07-20T05:02:23;16.90;1.00
6740;DHT22;3407;49.882;10.920;2023-07-20T05:07:18;16.80;1.00
6740;DHT22;3407;49.882;10.920;2023-07-20T05:12:14;16.90;1.00
6740;DHT22;3407;49.882;10.920;2023-07-20T05:17:09;18.40;1.00
6740;DHT22;3407;49.882;10.920;2023-07-20T05:22:05;20.20;99.90
6740;DHT22;3407;49.882;10.920;2023-07-20T05:27:00;21.20;99.90
6740;DHT22;3407;49.882;10.920;2023-07-20T05:31:56;22.50;1.00
6740;DHT22;3407;49.882;10.920;2023-07-20T05:36:51;23.30;99.90
6740;DHT22;3407;49.882;10.920;2023-07-20T05:41:47;24.60;99.90
6740;DHT22;3407;49.882;10.920;2023-07-20T05:46:42;25.00;99.90
6740;DHT22;3407;49.882;10.920;2023-07-20T05:51:38;25.40;99.90
6740;DHT22;3407;49.882;10.920;2023-07-20T05:56:33;26.00;99.90
6740;DHT22;3407;49.882;10.920;2023-07-20T06:01:30;26.20;99.90
6740;DHT22;3407;49.882;10.920;2023-07-20T06:06:25;25.20;99.90
6740;DHT22;3407;49.882;10.920;2023-07-20T06:11:21;24.30;99.90
6740;DHT22;3407;49.882;10.920;2023-07-20T06:16:16;23.30;99.90
6740;DHT22;3407;49.882;10.920;2023-07-20T06:21:12;23.20;99.90
6740;DHT22;3407;49.882;10.920;2023-07-20T06:26:07;23.00;99.90
6740;DHT22;3407;49.882;10.920;2023-07-20T06:31:03;22.60;99.90
6740;DHT22;3407;49.882;10.920;2023-07-20T06:35:59;22.70;99.90
6740;DHT22;3407;49.882;10.920;2023-07-20T06:40:54;22.70;99.90
6740;DHT22;3407;49.882;10.920;2023-07-20T06:45:53;22.90;99.90
6740;DHT22;3407;49.882;10.920;2023-07-20T06:50:49;23.40;99.90
6740;DHT22;3407;49.882;10.920;2023-07-20T06:55:44;23.80;99.90
6740;DHT22;3407;49.882;10.920;2023-07-20T07:00:40;23.90;99.90
6740;DHT22;3407;49.882;10.920;2023-07-20T07:05:36;23.80;99.90
6740;DHT22;3407;49.882;10.920;2023-07-20T07:10:34;24.20;99.90
6740;DHT22;3407;49.882;10.920;2023-07-20T07:15:30;24.30;99.90
6740;DHT22;3407;49.882;10.920;2023-07-20T07:20:26;24.70;99.90
6740;DHT22;3407;49.882;10.920;2023-07-20T07:25:21;25.30;99.90
6740;DHT22;3407;49.882;10.920;2023-07-20T07:30:17;26.20;99.10
6740;DHT22;3407;49.882;10.920;2023-07-20T07:35:12;27.20;93.90
6740;DHT22;3407;49.882;10.920;2023-07-20T07:40:08;27.50;85.70
6740;DHT22;3407;49.882;10.920;2023-07-20T07:45:04;27.10;77.70
6740;DHT22;3407;49.882;10.920;2023-07-20T07:50:00;27.20;74.90
6740;DHT22;3407;49.882;10.920;2023-07-20T07:54:56;26.80;92.00
6740;DHT22;3407;49.882;10.920;2023-07-20T07:59:51;26.40;69.10
6740;DHT22;3407;49.882;10.920;2023-07-20T08:04:47;26.20;69.20
6740;DHT22;3407;49.882;10.920;2023-07-20T08:09:42;26.40;63.30
6740;DHT22;3407;49.882;10.920;2023-07-20T08:14:38;26.40;67.00
6740;DHT22;3407;49.882;10.920;2023-07-20T08:19:33;26.50;58.30
6740;DHT22;3407;49.882;10.920;2023-07-20T08:24:30;26.40;54.80
6740;DHT22;3407;49.882;10.920;2023-07-20T08:29:25;25.80;57.40
6740;DHT22;3407;49.882;10.920;2023-07-20T08:34:21;26.00;55.80
6740;DHT22;3407;49.882;10.920;2023-07-20T08:39:17;26.50;52.70
6740;DHT22;3407;49.882;10.920;2023-07-20T08:44:12;26.80;48.50
6740;DHT22;3407;49.882;10.920;2023-07-20T08:49:08;26.50;46.20
6740;DHT22;3407;49.882;10.920;2023-07-20T08:54:08;27.10;46.10
6740;DHT22;3407;49.882;10.920;2023-07-20T08:59:04;27.70;37.90
6740;DHT22;3407;49.882;10.920;2023-07-20T09:04:01;26.80;36.00
6740;DHT22;3407;49.882;10.920;2023-07-20T09:08:57;27.20;37.50
6740;DHT22;3407;49.882;10.920;2023-07-20T09:14:09;28.10;33.40
6740;DHT22;3407;49.882;10.920;2023-07-20T09:19:05;27.80;26.90
6740;DHT22;3407;49.882;10.920;2023-07-20T09:24:00;27.90;26.60
6740;DHT22;3407;49.882;10.920;2023-07-20T09:28:56;27.40;24.50
6740;DHT22;3407;49.882;10.920;2023-07-20T09:33:52;26.40;27.20
6740;DHT22;3407;49.882;10.920;2023-07-20T09:38:49;25.50;33.20
6740;DHT22;3407;49.882;10.920;2023-07-20T09:43:45;25.00;37.70
6740;DHT22;3407;49.882;10.920;2023-07-20T09:48:41;24.20;43.00
6740;DHT22;3407;49.882;10.920;2023-07-20T09:53:37;23.80;51.50
6740;DHT22;3407;49.882;10.920;2023-07-20T09:58:33;24.00;57.20
6740;DHT22;3407;49.882;10.920;2023-07-20T10:03:30;25.30;50.30
6740;DHT22;3407;49.882;10.920;2023-07-20T10:08:29;28.20;45.00
6740;DHT22;3407;49.882;10.920;2023-07-20T10:13:27;31.80;18.10
6740;DHT22;3407;49.882;10.920;2023-07-20T10:18:30;33.70;7.30
6740;DHT22;3407;49.882;10.920;2023-07-20T10:23:28;35.40;1.00
6740;DHT22;3407;49.882;10.920;2023-07-20T10:28:24;35.80;1.00
6740;DHT22;3407;49.882;10.920;2023-07-20T10:33:20;36.60;1.00
6740;DHT22;3407;49.882;10.920;2023-07-20T10:38:16;37.70;1.00
6740;DHT22;3407;49.882;10.920;2023-07-20T10:43:12;34.90;1.00
6740;DHT22;3407;49.882;10.920;2023-07-20T10:48:16;31.60;1.00
6740;DHT22;3407;49.882;10.920;2023-07-20T10:53:14;29.20;1.00
6740;DHT22;3407;49.882;10.920;2023-07-20T10:58:14;28.30;1.00
6740;DHT22;3407;49.882;10.920;2023-07-20T11:03:10;27.60;1.00
6740;DHT22;3407;49.882;10.920;2023-07-20T11:08:12;28.70;1.00
6740;DHT22;3407;49.882;10.920;2023-07-20T11:13:18;29.00;1.00
6740;DHT22;3407;49.882;10.920;2023-07-20T11:18:14;27.40;1.00
6740;DHT22;3407;49.882;10.920;2023-07-20T11:23:10;26.30;1.60
6740;DHT22;3407;49.882;10.920;2023-07-20T11:28:09;27.30;1.20
6740;DHT22;3407;49.882;10.920;2023-07-20T11:33:08;27.40;1.50
6740;DHT22;3407;49.882;10.920;2023-07-20T11:38:04;27.10;2.20
6740;DHT22;3407;49.882;10.920;2023-07-20T11:42:59;28.60;1.30
6740;DHT22;3407;49.882;10.920;2023-07-20T11:47:58;33.40;1.00
6740;DHT22;3407;49.882;10.920;2023-07-20T11:52:54;33.40;1.00
6740;DHT22;3407;49.882;10.920;2023-07-20T11:58:05;32.20;1.00
6740;DHT22;3407;49.882;10.920;2023-07-20T12:03:01;33.60;1.00
6740;DHT22;3407;49.882;10.920;2023-07-20T12:07:57;36.40;1.00
6740;DHT22;3407;49.882;10.920;2023-07-20T12:12:52;35.20;1.00
6740;DHT22;3407;49.882;10.920;2023-07-20T12:17:53;32.10;1.00
6740;DHT22;3407;49.882;10.920;2023-07-20T12:22:49;29.70;1.00
6740;DHT22;3407;49.882;10.920;2023-07-20T12:27:44;28.20;1.00
6740;DHT22;3407;49.882;10.920;2023-07-20T12:32:40;27.90;1.00
6740;DHT22;3407;49.882;10.920;2023-07-20T12:37:35;30.10;1.00
6740;DHT22;3407;49.882;10.920;2023-07-20T12:42:31;29.10;1.00
6740;DHT22;3407;49.882;10.920;2023-07-20T12:47:26;27.80;1.00
6740;DHT22;3407;49.882;10.920;2023-07-20T12:52:22;27.20;1.00
6740;DHT22;3407;49.882;10.920;2023-07-20T12:57:17;26.70;1.00
6740;DHT22;3407;49.882;10.920;2023-07-20T13:02:13;27.30;1.00
6740;DHT22;3407;49.882;10.920;2023-07-20T13:07:10;27.80;1.00
6740;DHT22;3407;49.882;10.920;2023-07-20T13:12:07;27.10;1.00
6740;DHT22;3407;49.882;10.920;2023-07-20T13:17:03;26.60;1.00
6740;DHT22;3407;49.882;10.920;2023-07-20T13:21:59;26.40;1.00
6740;DHT22;3407;49.882;10.920;2023-07-20T13:26:54;26.20;1.00
6740;DHT22;3407;49.882;10.920;2023-07-20T13:31:50;26.10;1.00
6740;DHT22;3407;49.882;10.920;2023-07-20T13:36:45;26.30;1.00
6740;DHT22;3407;49.882;10.920;2023-07-20T13:41:41;26.60;1.00
6740;DHT22;3407;49.882;10.920;2023-07-20T13:46:37;27.20;1.00
6740;DHT22;3407;49.882;10.920;2023-07-20T13:51:33;28.00;1.00
6740;DHT22;3407;49.882;10.920;2023-07-20T13:56:28;27.90;1.00
6740;DHT22;3407;49.882;10.920;2023-07-20T14:01:24;27.50;1.00
6740;DHT22;3407;49.882;10.920;2023-07-20T14:06:20;27.10;1.00
6740;DHT22;3407;49.882;10.920;2023-07-20T14:11:16;26.70;1.00
6740;DHT22;3407;49.882;10.920;2023-07-20T14:16:12;26.30;1.00
6740;DHT22;3407;49.882;10.920;2023-07-20T14:21:07;26.10;1.00
6740;DHT22;3407;49.882;10.920;2023-07-20T14:26:03;26.10;1.00
6740;DHT22;3407;49.882;10.920;2023-07-20T14:31:00;26.00;1.00
6740;DHT22;3407;49.882;10.920;2023-07-20T14:35:56;26.00;1.00
6740;DHT22;3407;49.882;10.920;2023-07-20T14:40:51;26.30;1.00
6740;DHT22;3407;49.882;10.920;2023-07-20T14:45:47;26.30;1.00
6740;DHT22;3407;49.882;10.920;2023-07-20T14:50:42;25.90;1.00
6740;DHT22;3407;49.882;10.920;2023-07-20T14:55:42;25.60;1.00
6740;DHT22;3407;49.882;10.920;2023-07-20T15:00:37;25.70;1.00
6740;DHT22;3407;49.882;10.920;2023-07-20T15:05:33;25.80;1.00
6740;DHT22;3407;49.882;10.920;2023-07-20T15:10:30;25.70;1.00
6740;DHT22;3407;49.882;10.920;2023-07-20T15:15:25;26.10;1.00
6740;DHT22;3407;49.882;10.920;2023-07-20T15:20:21;25.60;1.00
6740;DHT22;3407;49.882;10.920;2023-07-20T15:25:16;25.20;1.00
6740;DHT22;3407;49.882;10.920;2023-07-20T15:30:12;25.10;1.00
6740;DHT22;3407;49.882;10.920;2023-07-20T15:35:10;25.30;1.00
6740;DHT22;3407;49.882;10.920;2023-07-20T15:40:06;25.00;1.00
6740;DHT22;3407;49.882;10.920;2023-07-20T15:45:02;24.80;1.00
6740;DHT22;3407;49.882;10.920;2023-07-20T15:49:58;24.90;1.00
6740;DHT22;3407;49.882;10.920;2023-07-20T15:54:53;25.00;1.00
6740;DHT22;3407;49.882;10.920;2023-07-20T15:59:49;24.80;1.00
6740;DHT22;3407;49.882;10.920;2023-07-20T16:04:45;24.60;1.00
6740;DHT22;3407;49.882;10.920;2023-07-20T16:09:41;24.80;1.00
6740;DHT22;3407;49.882;10.920;2023-07-20T16:14:37;25.00;1.00
6740;DHT22;3407;49.882;10.920;2023-07-20T16:19:33;24.50;1.00
6740;DHT22;3407;49.882;10.920;2023-07-20T16:24:28;24.10;1.00
6740;DHT22;3407;49.882;10.920;2023-07-20T16:29:24;24.00;1.30
6740;DHT22;3407;49.882;10.920;2023-07-20T16:34:19;23.90;1.90
6740;DHT22;3407;49.882;10.920;2023-07-20T16:39:15;24.00;1.20
6740;DHT22;3407;49.882;10.920;2023-07-20T16:44:11;24.00;1.40
6740;DHT22;3407;49.882;10.920;2023-07-20T16:49:06;24.10;1.40
6740;DHT22;3407;49.882;10.920;2023-07-20T16:54:04;24.20;3.60
6740;DHT22;3407;49.882;10.920;2023-07-20T16:59:02;24.30;2.00
6740;DHT22;3407;49.882;10.920;2023-07-20T17:03:58;24.30;2.10
6740;DHT22;3407;49.882;10.920;2023-07-20T17:08:54;24.50;2.50
6740;DHT22;3407;49.882;10.920;2023-07-20T17:13:50;24.60;1.30
6740;DHT22;3407;49.882;10.920;2023-07-20T17:18:46;24.40;2.30
6740;DHT22;3407;49.882;10.920;2023-07-20T17:23:41;24.00;3.00
6740;DHT22;3407;49.882;10.920;2023-07-20T17:28:37;23.70;4.30
6740;DHT22;3407;49.882;10.920;2023-07-20T17:33:32;23.60;5.30
6740;DHT22;3407;49.882;10.920;2023-07-20T17:38:28;23.50;5.60
6740;DHT22;3407;49.882;10.920;2023-07-20T17:43:24;23.30;6.70
6740;DHT22;3407;49.882;10.920;2023-07-20T17:48:19;23.10;9.70
6740;DHT22;3407;49.882;10.920;2023-07-20T17:53:16;23.00;9.70
6740;DHT22;3407;49.882;10.920;2023-07-20T17:58:12;22.80;10.20
6740;DHT22;3407;49.882;10.920;2023-07-20T18:03:07;22.70;11.50
6740;DHT22;3407;49.882;10.920;2023-07-20T18:08:03;22.60;13.10
6740;DHT22;3407;49.882;10.920;2023-07-20T18:12:58;22.50;13.60
6740;DHT22;3407;49.882;10.920;2023-07-20T18:17:54;22.40;14.70
6740;DHT22;3407;49.882;10.920;2023-07-20T18:22:50;22.30;15.30
6740;DHT22;3407;49.882;10.920;2023-07-20T18:27:45;22.20;16.10
6740;DHT22;3407;49.882;10.920;2023-07-20T18:32:43;22.10;16.10
6740;DHT22;3407;49.882;10.920;2023-07-20T18:37:39;22.00;17.60
6740;DHT22;3407;49.882;10.920;2023-07-20T18:42:35;21.90;19.50
6740;DHT22;3407;49.882;10.920;2023-07-20T18:47:30;21.80;18.40
6740;DHT22;3407;49.882;10.920;2023-07-20T18:52:26;21.70;19.90
6740;DHT22;3407;49.882;10.920;2023-07-20T18:57:22;21.60;21.40
6740;DHT22;3407;49.882;10.920;2023-07-20T19:02:17;21.50;22.20
6740;DHT22;3407;49.882;10.920;2023-07-20T19:07:13;21.40;22.20
6740;DHT22;3407;49.882;10.920;2023-07-20T19:12:09;21.30;24.30
6740;DHT22;3407;49.882;10.920;2023-07-20T19:17:06;21.30;24.00
6740;DHT22;3407;49.882;10.920;2023-07-20T19:22:01;21.20;25.20
6740;DHT22;3407;49.882;10.920;2023-07-20T19:26:57;21.10;26.80
6740;DHT22;3407;49.882;10.920;2023-07-20T19:31:53;21.00;28.30
6740;DHT22;3407;49.882;10.920;2023-07-20T19:36:48;20.80;30.40
6740;DHT22;3407;49.882;10.920;2023-07-20T19:41:44;20.70;31.10
6740;DHT22;3407;49.882;10.920;2023-07-20T19:46:39;20.60;34.60
6740;DHT22;3407;49.882;10.920;2023-07-20T19:51:35;20.50;35.80
6740;DHT22;3407;49.882;10.920;2023-07-20T19:56:32;20.30;39.00
6740;DHT22;3407;49.882;10.920;2023-07-20T20:01:29;20.30;40.80
6740;DHT22;3407;49.882;10.920;2023-07-20T20:06:25;20.10;42.50
6740;DHT22;3407;49.882;10.920;2023-07-20T20:11:20;20.00;44.20
6740;DHT22;3407;49.882;10.920;2023-07-20T20:16:18;19.90;46.10
6740;DHT22;3407;49.882;10.920;2023-07-20T20:21:14;19.80;47.60
6740;DHT22;3407;49.882;10.920;2023-07-20T20:26:10;19.70;51.30
6740;DHT22;3407;49.882;10.920;2023-07-20T20:31:05;19.60;54.40
6740;DHT22;3407;49.882;10.920;2023-07-20T20:36:02;19.60;56.80
6740;DHT22;3407;49.882;10.920;2023-07-20T20:40:57;19.70;58.60
6740;DHT22;3407;49.882;10.920;2023-07-20T20:45:53;19.70;62.00
6740;DHT22;3407;49.882;10.920;2023-07-20T20:50:49;19.70;65.30
6740;DHT22;3407;49.882;10.920;2023-07-20T20:55:44;19.70;66.30
6740;DHT22;3407;49.882;10.920;2023-07-20T21:00:40;19.60;67.80
6740;DHT22;3407;49.882;10.920;2023-07-20T21:05:35;19.50;72.10
6740;DHT22;3407;49.882;10.920;2023-07-20T21:10:32;19.50;77.40
6740;DHT22;3407;49.882;10.920;2023-07-20T21:15:28;19.50;80.70
6740;DHT22;3407;49.882;10.920;2023-07-20T21:20:24;19.60;86.60
6740;DHT22;3407;49.882;10.920;2023-07-20T21:25:19;19.50;87.20
6740;DHT22;3407;49.882;10.920;2023-07-20T21:30:15;19.50;91.20
6740;DHT22;3407;49.882;10.920;2023-07-20T21:35:10;19.50;91.00
6740;DHT22;3407;49.882;10.920;2023-07-20T21:40:06;19.40;92.00
6740;DHT22;3407;49.882;10.920;2023-07-20T21:45:03;19.50;93.70
6740;DHT22;3407;49.882;10.920;2023-07-20T21:49:58;19.40;97.10
6740;DHT22;3407;49.882;10.920;2023-07-20T21:54:54;19.40;99.90
6740;DHT22;3407;49.882;10.920;2023-07-20T21:59:50;19.40;99.90
6740;DHT22;3407;49.882;10.920;2023-07-20T22:04:45;19.30;99.90
6740;DHT22;3407;49.882;10.920;2023-07-20T22:09:41;19.30;99.90
6740;DHT22;3407;49.882;10.920;2023-07-20T22:14:43;19.20;99.90
6740;DHT22;3407;49.882;10.920;2023-07-20T22:19:40;19.10;99.90
6740;DHT22;3407;49.882;10.920;2023-07-20T22:24:36;19.00;99.90
6740;DHT22;3407;49.882;10.920;2023-07-20T22:29:31;19.00;99.90
6740;DHT22;3407;49.882;10.920;2023-07-20T22:34:29;18.90;99.90
6740;DHT22;3407;49.882;10.920;2023-07-20T22:39:31;18.80;99.90
6740;DHT22;3407;49.882;10.920;2023-07-20T22:44:29;18.80;99.90
6740;DHT22;3407;49.882;10.920;2023-07-20T22:49:24;18.80;99.90
6740;DHT22;3407;49.882;10.920;2023-07-20T22:54:20;18.80;99.90
6740;DHT22;3407;49.882;10.920;2023-07-20T22:59:16;18.90;99.90
6740;DHT22;3407;49.882;10.920;2023-07-20T23:04:11;18.80;99.90
6740;DHT22;3407;49.882;10.920;2023-07-20T23:09:07;18.80;99.90
6740;DHT22;3407;49.882;10.920;2023-07-20T23:14:04;18.80;99.90
6740;DHT22;3407;49.882;10.920;2023-07-20T23:19:00;18.70;99.90
6740;DHT22;3407;49.882;10.920;2023-07-20T23:23:55;18.70;99.90
6740;DHT22;3407;49.882;10.920;2023-07-20T23:28:53;18.70;99.90
6740;DHT22;3407;49.882;10.920;2023-07-20T23:33:48;18.80;99.90
6740;DHT22;3407;49.882;10.920;2023-07-20T23:38:45;18.70;99.90
6740;DHT22;3407;49.882;10.920;2023-07-20T23:43:42;18.50;99.90
6740;DHT22;3407;49.882;10.920;2023-07-20T23:48:37;18.50;99.90
6740;DHT22;3407;49.882;10.920;2023-07-20T23:53:39;18.50;99.90
6740;DHT22;3407;49.882;10.920;2023-07-20T23:58:35;18.40;99.90
